createdAt,value
2018-04-11T00:00:40.940Z,993.27
2018-04-11T00:01:40.956Z,993.25
2018-04-11T00:02:40.968Z,993.25
2018-04-11T00:03:41.034Z,993.29
2018-04-11T00:04:41.000Z,993.24
2018-04-11T00:05:41.018Z,993.29
2018-04-11T00:06:41.030Z,993.19
2018-04-11T00:07:41.046Z,993.28
2018-04-11T00:08:41.061Z,993.36
2018-04-11T00:09:41.075Z,993.26
2018-04-11T00:10:41.092Z,993.28
2018-04-11T00:11:41.105Z,993.33
2018-04-11T00:12:41.121Z,993.32
2018-04-11T00:13:41.135Z,993.35
2018-04-11T00:14:41.151Z,993.41
2018-04-11T00:15:41.220Z,993.45
2018-04-11T00:16:41.185Z,993.35
2018-04-11T00:17:41.200Z,993.43
2018-04-11T00:18:41.220Z,993.41
2018-04-11T00:19:41.231Z,993.53
2018-04-11T00:20:41.245Z,993.60
2018-04-11T00:21:41.266Z,993.52
2018-04-11T00:22:41.275Z,993.52
2018-04-11T00:23:41.370Z,993.57
2018-04-11T00:24:41.308Z,993.63
2018-04-11T00:25:41.330Z,993.57
2018-04-11T00:26:41.338Z,993.58
2018-04-11T00:27:41.356Z,993.51
2018-04-11T00:28:41.368Z,993.59
2018-04-11T00:29:41.387Z,993.55
2018-04-11T00:30:41.398Z,993.61
2018-04-11T00:31:41.410Z,993.67
2018-04-11T00:32:41.426Z,993.70
2018-04-11T00:33:41.444Z,993.64
2018-04-11T00:34:41.455Z,993.75
2018-04-11T00:35:41.472Z,993.58
2018-04-11T00:36:41.485Z,993.64
2018-04-11T00:37:41.500Z,993.67
2018-04-11T00:38:41.518Z,993.66
2018-04-11T00:39:41.580Z,993.67
2018-04-11T00:40:41.563Z,993.62
2018-04-11T00:41:41.558Z,993.64
2018-04-11T00:42:41.574Z,993.65
2018-04-11T00:43:41.588Z,993.60
2018-04-11T00:44:41.603Z,993.62
2018-04-11T00:45:41.670Z,993.62
2018-04-11T00:46:41.675Z,993.58
2018-04-11T00:47:41.663Z,993.62
2018-04-11T00:48:41.670Z,993.65
2018-04-11T00:49:41.715Z,993.64
2018-04-11T00:50:41.692Z,993.71
2018-04-11T00:51:41.722Z,993.71
2018-04-11T00:52:41.724Z,993.72
2018-04-11T00:53:41.741Z,993.82
2018-04-11T00:54:41.752Z,993.70
2018-04-11T00:55:41.769Z,993.79
2018-04-11T00:56:41.781Z,993.81
2018-04-11T00:57:41.796Z,993.79
2018-04-11T00:58:41.812Z,993.81
2018-04-11T00:59:41.828Z,993.83
2018-04-11T01:00:41.843Z,993.76
2018-04-11T01:01:41.859Z,993.80
2018-04-11T01:02:41.869Z,993.75
2018-04-11T01:03:41.934Z,993.78
2018-04-11T01:04:41.899Z,993.88
2018-04-11T01:05:41.914Z,993.81
2018-04-11T01:06:41.928Z,993.77
2018-04-11T01:07:41.946Z,993.81
2018-04-11T01:08:41.963Z,993.81
2018-04-11T01:09:42.009Z,993.77
2018-04-11T01:10:41.990Z,993.86
2018-04-11T01:11:42.004Z,993.91
2018-04-11T01:12:42.022Z,993.95
2018-04-11T01:13:42.036Z,993.97
2018-04-11T01:14:42.052Z,993.92
2018-04-11T01:15:42.077Z,993.90
2018-04-11T01:16:42.079Z,993.96
2018-04-11T01:17:42.097Z,993.92
2018-04-11T01:18:42.111Z,993.87
2018-04-11T01:19:42.131Z,993.90
2018-04-11T01:20:42.202Z,993.76
2018-04-11T01:21:42.213Z,993.82
2018-04-11T01:22:42.170Z,993.81
2018-04-11T01:23:42.185Z,993.86
2018-04-11T01:24:42.203Z,993.86
2018-04-11T01:25:42.217Z,993.85
2018-04-11T01:26:42.231Z,993.86
2018-04-11T01:27:42.297Z,993.83
2018-04-11T01:28:42.262Z,993.84
2018-04-11T01:29:42.284Z,993.90
2018-04-11T01:30:42.306Z,993.85
2018-04-11T01:31:42.305Z,993.85
2018-04-11T01:32:42.322Z,993.87
2018-04-11T01:33:42.387Z,993.90
2018-04-11T01:34:42.348Z,993.88
2018-04-11T01:35:42.369Z,993.88
2018-04-11T01:36:42.381Z,993.91
2018-04-11T01:37:42.438Z,993.93
2018-04-11T01:38:42.410Z,993.88
2018-04-11T01:39:42.476Z,993.81
2018-04-11T01:40:42.442Z,993.89
2018-04-11T01:41:42.456Z,993.92
2018-04-11T01:42:42.469Z,993.95
2018-04-11T01:43:42.550Z,993.91
2018-04-11T01:44:42.502Z,993.97
2018-04-11T01:45:42.516Z,993.98
2018-04-11T01:46:42.530Z,993.97
2018-04-11T01:47:42.546Z,994.04
2018-04-11T01:48:42.560Z,993.97
2018-04-11T01:49:42.625Z,994.04
2018-04-11T01:50:42.591Z,994.02
2018-04-11T01:51:42.608Z,994.07
2018-04-11T01:52:42.621Z,994.02
2018-04-11T01:53:42.638Z,994.07
2018-04-11T01:54:42.657Z,994.00
2018-04-11T01:55:42.668Z,994.06
2018-04-11T01:56:42.684Z,994.11
2018-04-11T01:57:42.751Z,994.05
2018-04-11T01:58:42.715Z,994.08
2018-04-11T01:59:42.729Z,994.11
2018-04-11T02:00:42.745Z,994.09
2018-04-11T02:01:42.842Z,994.11
2018-04-11T02:02:42.774Z,994.19
2018-04-11T02:03:42.792Z,994.15
2018-04-11T02:04:42.809Z,994.26
2018-04-11T02:05:42.821Z,994.17
2018-04-11T02:06:42.839Z,994.21
2018-04-11T02:07:42.851Z,994.16
2018-04-11T02:08:42.865Z,994.11
2018-04-11T02:09:42.907Z,994.18
2018-04-11T02:10:42.897Z,994.24
2018-04-11T02:11:42.912Z,994.25
2018-04-11T02:12:42.932Z,994.21
2018-04-11T02:13:42.945Z,994.19
2018-04-11T02:14:42.958Z,994.18
2018-04-11T02:15:42.972Z,994.17
2018-04-11T02:16:42.989Z,994.18
2018-04-11T02:17:43.010Z,994.27
2018-04-11T02:18:43.028Z,994.30
2018-04-11T02:19:43.035Z,994.34
2018-04-11T02:20:43.049Z,994.31
2018-04-11T02:21:43.119Z,994.34
2018-04-11T02:22:43.083Z,994.33
2018-04-11T02:23:43.099Z,994.36
2018-04-11T02:24:43.153Z,994.38
2018-04-11T02:25:43.137Z,994.34
2018-04-11T02:26:43.142Z,994.34
2018-04-11T02:27:43.167Z,994.44
2018-04-11T02:28:43.174Z,994.42
2018-04-11T02:29:43.190Z,994.42
2018-04-11T02:30:43.222Z,994.43
2018-04-11T02:31:43.222Z,994.43
2018-04-11T02:32:43.289Z,994.45
2018-04-11T02:33:43.253Z,994.51
2018-04-11T02:34:43.269Z,994.51
2018-04-11T02:35:43.283Z,994.51
2018-04-11T02:36:43.364Z,994.58
2018-04-11T02:37:43.313Z,994.58
2018-04-11T02:38:43.326Z,994.59
2018-04-11T02:39:43.343Z,994.64
2018-04-11T02:40:43.360Z,994.66
2018-04-11T02:41:43.375Z,994.64
2018-04-11T02:42:43.426Z,994.64
2018-04-11T02:43:43.407Z,994.68
2018-04-11T02:44:43.425Z,994.64
2018-04-11T02:45:43.437Z,994.64
2018-04-11T02:46:43.453Z,994.63
2018-04-11T02:47:43.465Z,994.65
2018-04-11T02:48:43.481Z,994.69
2018-04-11T02:49:43.499Z,994.64
2018-04-11T02:50:43.516Z,994.64
2018-04-11T02:51:43.538Z,994.70
2018-04-11T02:52:43.540Z,994.74
2018-04-11T02:53:43.559Z,994.72
2018-04-11T02:54:43.578Z,994.73
2018-04-11T02:55:43.591Z,994.76
2018-04-11T02:56:43.658Z,994.81
2018-04-11T02:57:43.617Z,994.83
2018-04-11T02:58:43.639Z,994.75
2018-04-11T02:59:43.696Z,994.82
2018-04-11T03:00:43.667Z,994.78
2018-04-11T03:01:43.682Z,994.84
2018-04-11T03:03:51.524Z,994.83
2018-04-11T03:04:43.729Z,994.90
2018-04-11T03:05:43.745Z,994.92
2018-04-11T03:06:43.757Z,994.96
2018-04-11T03:07:43.774Z,994.96
2018-04-11T03:08:43.825Z,994.95
2018-04-11T03:09:43.857Z,995.00
2018-04-11T03:10:43.822Z,995.03
2018-04-11T03:11:43.836Z,995.02
2018-04-11T03:12:43.849Z,995.02
2018-04-11T03:13:43.870Z,995.03
2018-04-11T03:14:43.882Z,995.09
2018-04-11T03:15:43.900Z,995.05
2018-04-11T03:16:43.910Z,995.04
2018-04-11T03:17:43.928Z,995.10
2018-04-11T03:18:43.943Z,995.10
2018-04-11T03:19:43.961Z,995.12
2018-04-11T03:20:43.973Z,995.05
2018-04-11T03:21:43.989Z,995.02
2018-04-11T03:22:44.004Z,995.11
2018-04-11T03:23:44.023Z,995.09
2018-04-11T03:24:44.039Z,995.14
2018-04-11T03:25:44.048Z,995.14
2018-04-11T03:26:44.069Z,995.12
2018-04-11T03:27:44.090Z,995.14
2018-04-11T03:28:44.094Z,995.19
2018-04-11T03:29:44.163Z,995.21
2018-04-11T03:30:44.125Z,995.22
2018-04-11T03:31:44.144Z,995.25
2018-04-11T03:32:44.155Z,995.26
2018-04-11T03:33:44.176Z,995.29
2018-04-11T03:34:44.191Z,995.32
2018-04-11T03:35:44.212Z,995.35
2018-04-11T03:36:44.222Z,995.35
2018-04-11T03:37:44.235Z,995.35
2018-04-11T03:38:44.253Z,995.44
2018-04-11T03:39:44.266Z,995.37
2018-04-11T03:40:44.281Z,995.39
2018-04-11T03:41:44.297Z,995.42
2018-04-11T03:42:44.319Z,995.41
2018-04-11T03:43:44.328Z,995.52
2018-04-11T03:44:44.341Z,995.49
2018-04-11T03:45:44.360Z,995.52
2018-04-11T03:46:44.393Z,995.50
2018-04-11T03:47:44.390Z,995.49
2018-04-11T03:48:44.403Z,995.50
2018-04-11T03:49:44.422Z,995.55
2018-04-11T03:50:44.434Z,995.54
2018-04-11T03:51:44.452Z,995.55
2018-04-11T03:52:44.532Z,995.53
2018-04-11T03:53:44.482Z,995.55
2018-04-11T03:54:44.497Z,995.56
2018-04-11T03:55:44.512Z,995.55
2018-04-11T03:56:44.531Z,995.51
2018-04-11T03:57:44.547Z,995.55
2018-04-11T03:58:44.625Z,995.57
2018-04-11T03:59:44.570Z,995.57
2018-04-11T04:00:44.588Z,995.56
2018-04-11T04:01:44.635Z,995.58
2018-04-11T04:02:44.624Z,995.61
2018-04-11T04:03:44.638Z,995.61
2018-04-11T04:04:44.700Z,995.62
2018-04-11T04:05:44.668Z,995.62
2018-04-11T04:06:44.680Z,995.66
2018-04-11T04:07:44.762Z,995.66
2018-04-11T04:08:44.713Z,995.68
2018-04-11T04:09:44.733Z,995.71
2018-04-11T04:10:44.781Z,995.71
2018-04-11T04:11:44.759Z,995.71
2018-04-11T04:12:44.773Z,995.70
2018-04-11T04:13:44.815Z,995.74
2018-04-11T04:14:44.806Z,995.79
2018-04-11T04:15:44.818Z,995.75
2018-04-11T04:16:44.868Z,995.79
2018-04-11T04:17:44.845Z,995.86
2018-04-11T04:18:44.868Z,995.88
2018-04-11T04:19:44.909Z,995.88
2018-04-11T04:20:44.892Z,995.89
2018-04-11T04:21:44.916Z,995.91
2018-04-11T04:22:45.003Z,995.91
2018-04-11T04:23:44.944Z,995.95
2018-04-11T04:24:44.954Z,995.97
2018-04-11T04:25:44.980Z,995.99
2018-04-11T04:26:44.988Z,996.04
2018-04-11T04:27:45.006Z,995.96
2018-04-11T04:28:45.020Z,996.02
2018-04-11T04:29:45.036Z,996.07
2018-04-11T04:30:45.048Z,996.06
2018-04-11T04:31:45.070Z,996.06
2018-04-11T04:32:45.086Z,996.00
2018-04-11T04:33:45.094Z,996.00
2018-04-11T04:34:45.110Z,996.03
2018-04-11T04:35:45.131Z,996.05
2018-04-11T04:36:45.145Z,996.06
2018-04-11T04:37:45.162Z,996.05
2018-04-11T04:38:45.171Z,996.05
2018-04-11T04:39:45.187Z,996.04
2018-04-11T04:40:45.206Z,996.08
2018-04-11T04:41:45.217Z,996.04
2018-04-11T04:42:45.238Z,996.10
2018-04-11T04:43:45.245Z,996.10
2018-04-11T04:44:45.269Z,996.10
2018-04-11T04:45:45.318Z,996.10
2018-04-11T04:46:45.294Z,996.10
2018-04-11T04:47:45.318Z,996.08
2018-04-11T04:48:45.330Z,996.13
2018-04-11T04:49:45.342Z,996.18
2018-04-11T04:50:45.360Z,996.17
2018-04-11T04:51:45.459Z,996.19
2018-04-11T04:52:45.386Z,996.24
2018-04-11T04:53:45.403Z,996.27
2018-04-11T04:54:45.416Z,996.29
2018-04-11T04:55:45.429Z,996.32
2018-04-11T04:56:45.449Z,996.29
2018-04-11T04:57:45.469Z,996.33
2018-04-11T04:58:45.479Z,996.33
2018-04-11T04:59:45.497Z,996.31
2018-04-11T05:00:45.505Z,996.37
2018-04-11T05:01:45.528Z,996.31
2018-04-11T05:02:45.541Z,996.35
2018-04-11T05:03:45.555Z,996.36
2018-04-11T05:04:45.576Z,996.34
2018-04-11T05:05:45.590Z,996.36
2018-04-11T05:06:45.604Z,996.36
2018-04-11T05:07:45.620Z,996.41
2018-04-11T05:08:45.654Z,996.40
2018-04-11T05:09:45.647Z,996.42
2018-04-11T05:10:45.659Z,996.40
2018-04-11T05:11:45.682Z,996.43
2018-04-11T05:12:45.697Z,996.37
2018-04-11T05:13:45.706Z,996.44
2018-04-11T05:14:45.782Z,996.46
2018-04-11T05:15:45.739Z,996.46
2018-04-11T05:16:45.757Z,996.42
2018-04-11T05:17:45.768Z,996.46
2018-04-11T05:18:45.787Z,996.43
2018-04-11T05:19:45.797Z,996.43
2018-04-11T05:20:45.881Z,996.44
2018-04-11T05:21:45.860Z,996.45
2018-04-11T05:22:45.847Z,996.43
2018-04-11T05:23:45.867Z,996.36
2018-04-11T05:24:45.878Z,996.40
2018-04-11T05:25:45.898Z,996.45
2018-04-11T05:26:45.932Z,996.45
2018-04-11T05:27:45.932Z,996.47
2018-04-11T05:28:45.940Z,996.47
2018-04-11T05:29:45.953Z,996.47
2018-04-11T05:30:45.973Z,996.51
2018-04-11T05:31:45.990Z,996.55
2018-04-11T05:32:46.132Z,996.54
2018-04-11T05:33:46.013Z,996.59
2018-04-11T05:34:46.029Z,996.57
2018-04-11T05:35:46.050Z,996.53
2018-04-11T05:36:46.061Z,996.59
2018-04-11T05:37:46.080Z,996.61
2018-04-11T05:38:46.097Z,996.64
2018-04-11T05:39:46.106Z,996.64
2018-04-11T05:40:46.125Z,996.65
2018-04-11T05:41:46.140Z,996.65
2018-04-11T05:42:46.156Z,996.66
2018-04-11T05:43:46.182Z,996.68
2018-04-11T05:44:46.179Z,996.69
2018-04-11T05:45:46.197Z,996.68
2018-04-11T05:46:46.211Z,996.68
2018-04-11T05:47:46.233Z,996.70
2018-04-11T05:48:46.247Z,996.69
2018-04-11T05:49:46.259Z,996.71
2018-04-11T05:50:46.272Z,996.71
2018-04-11T05:51:46.289Z,996.73
2018-04-11T05:52:46.299Z,996.76
2018-04-11T05:53:46.315Z,996.79
2018-04-11T05:54:46.336Z,996.82
2018-04-11T05:55:46.347Z,996.82
2018-04-11T05:56:46.363Z,996.84
2018-04-11T05:57:46.381Z,996.89
2018-04-11T05:58:46.454Z,996.92
2018-04-11T05:59:46.405Z,996.95
2018-04-11T06:00:46.423Z,996.95
2018-04-11T06:01:46.436Z,996.98
2018-04-11T06:02:46.452Z,997.01
2018-04-11T06:03:46.465Z,996.97
2018-04-11T06:04:46.485Z,997.01
2018-04-11T06:05:46.502Z,997.04
2018-04-11T06:06:46.585Z,997.04
2018-04-11T06:07:46.529Z,997.06
2018-04-11T06:08:46.545Z,997.10
2018-04-11T06:09:46.559Z,997.14
2018-04-11T06:10:46.581Z,997.18
2018-04-11T06:11:46.649Z,997.19
2018-04-11T06:12:46.685Z,997.23
2018-04-11T06:13:46.621Z,997.22
2018-04-11T06:14:46.685Z,997.26
2018-04-11T06:15:46.654Z,997.28
2018-04-11T06:16:46.671Z,997.22
2018-04-11T06:17:46.684Z,997.26
2018-04-11T06:18:46.721Z,997.25
2018-04-11T06:19:46.713Z,997.24
2018-04-11T06:20:46.727Z,997.24
2018-04-11T06:21:46.745Z,997.25
2018-04-11T06:22:46.804Z,997.25
2018-04-11T06:23:46.778Z,997.25
2018-04-11T06:24:46.846Z,997.23
2018-04-11T06:25:46.804Z,997.27
2018-04-11T06:26:46.818Z,997.27
2018-04-11T06:27:46.842Z,997.28
2018-04-11T06:28:46.855Z,997.32
2018-04-11T06:29:46.866Z,997.29
2018-04-11T06:30:46.881Z,997.36
2018-04-11T06:31:46.893Z,997.39
2018-04-11T06:32:46.907Z,997.40
2018-04-11T06:33:46.970Z,997.40
2018-04-11T06:34:46.944Z,997.46
2018-04-11T06:35:46.956Z,997.47
2018-04-11T06:36:46.974Z,997.47
2018-04-11T06:37:46.985Z,997.50
2018-04-11T06:38:47.001Z,997.47
2018-04-11T06:39:47.016Z,997.53
2018-04-11T06:40:47.034Z,997.53
2018-04-11T06:41:47.062Z,997.57
2018-04-11T06:42:47.063Z,997.56
2018-04-11T06:43:47.082Z,997.50
2018-04-11T06:44:47.100Z,997.54
2018-04-11T06:45:47.116Z,997.52
2018-04-11T06:46:47.125Z,997.52
2018-04-11T06:47:47.185Z,997.55
2018-04-11T06:48:47.154Z,997.57
2018-04-11T06:49:47.166Z,997.53
2018-04-11T06:50:47.189Z,997.49
2018-04-11T06:51:47.197Z,997.56
2018-04-11T06:52:47.221Z,997.56
2018-04-11T06:53:47.251Z,997.54
2018-04-11T06:54:47.246Z,997.56
2018-04-11T06:55:47.260Z,997.60
2018-04-11T06:56:47.284Z,997.67
2018-04-11T06:57:47.296Z,997.67
2018-04-11T06:58:47.309Z,997.72
2018-04-11T06:59:47.341Z,997.70
2018-04-11T07:00:47.346Z,997.72
2018-04-11T07:01:47.385Z,997.78
2018-04-11T07:02:47.375Z,997.73
2018-04-11T07:03:47.389Z,997.75
2018-04-11T07:04:47.458Z,997.72
2018-04-11T07:05:47.416Z,997.77
2018-04-11T07:06:47.434Z,997.82
2018-04-11T07:07:47.447Z,997.86
2018-04-11T07:08:47.469Z,997.84
2018-04-11T07:09:47.482Z,997.83
2018-04-11T07:10:47.509Z,997.86
2018-04-11T07:11:47.512Z,997.85
2018-04-11T07:12:47.527Z,997.85
2018-04-11T07:13:47.543Z,997.83
2018-04-11T07:14:47.557Z,997.87
2018-04-11T07:15:47.578Z,997.77
2018-04-11T07:16:47.592Z,997.84
2018-04-11T07:17:47.610Z,997.89
2018-04-11T07:18:47.626Z,997.92
2018-04-11T07:19:47.637Z,997.93
2018-04-11T07:20:47.660Z,997.97
2018-04-11T07:21:47.675Z,997.93
2018-04-11T07:22:47.685Z,997.97
2018-04-11T07:23:47.711Z,998.06
2018-04-11T07:24:47.721Z,998.04
2018-04-11T07:25:47.811Z,998.04
2018-04-11T07:26:47.759Z,997.99
2018-04-11T07:27:47.772Z,998.06
2018-04-11T07:28:47.783Z,998.07
2018-04-11T07:29:47.803Z,998.09
2018-04-11T07:30:47.815Z,998.10
2018-04-11T07:31:47.832Z,998.09
2018-04-11T07:32:47.846Z,998.13
2018-04-11T07:33:47.881Z,998.15
2018-04-11T07:34:47.884Z,998.18
2018-04-11T07:35:47.900Z,998.18
2018-04-11T07:36:47.925Z,998.15
2018-04-11T07:37:47.929Z,998.16
2018-04-11T07:38:47.948Z,998.19
2018-04-11T07:39:47.969Z,998.25
2018-04-11T07:40:47.984Z,998.23
2018-04-11T07:41:47.999Z,998.26
2018-04-11T07:42:48.019Z,998.30
2018-04-11T07:43:48.035Z,998.30
2018-04-11T07:44:48.052Z,998.33
2018-04-11T07:45:48.076Z,998.30
2018-04-11T07:46:48.082Z,998.31
2018-04-11T07:47:48.097Z,998.36
2018-04-11T07:48:48.115Z,998.35
2018-04-11T07:49:48.136Z,998.31
2018-04-11T07:50:48.180Z,998.37
2018-04-11T07:51:48.175Z,998.39
2018-04-11T07:52:48.189Z,998.44
2018-04-11T07:53:48.263Z,998.38
2018-04-11T07:54:48.227Z,998.39
2018-04-11T07:55:48.239Z,998.38
2018-04-11T07:56:48.260Z,998.39
2018-04-11T07:57:48.323Z,998.44
2018-04-11T07:58:48.291Z,998.43
2018-04-11T07:59:48.315Z,998.41
2018-04-11T08:00:48.328Z,998.43
2018-04-11T08:01:48.348Z,998.42
2018-04-11T08:02:48.370Z,998.45
2018-04-11T08:03:48.387Z,998.45
2018-04-11T08:04:48.407Z,998.41
2018-04-11T08:05:48.422Z,998.43
2018-04-11T08:06:48.440Z,998.44
2018-04-11T08:07:48.456Z,998.50
2018-04-11T08:08:48.481Z,998.50
2018-04-11T08:09:48.545Z,998.51
2018-04-11T08:10:48.535Z,998.52
2018-04-11T08:11:48.533Z,998.54
2018-04-11T08:12:48.561Z,998.56
2018-04-11T08:13:48.576Z,998.61
2018-04-11T08:14:48.588Z,998.54
2018-04-11T08:15:48.606Z,998.52
2018-04-11T08:16:48.628Z,998.55
2018-04-11T08:17:48.644Z,998.58
2018-04-11T08:18:48.670Z,998.56
2018-04-11T08:19:48.685Z,998.55
2018-04-11T08:20:48.778Z,998.51
2018-04-11T08:21:48.728Z,998.50
2018-04-11T08:22:48.745Z,998.57
2018-04-11T08:23:48.758Z,998.59
2018-04-11T08:24:48.776Z,998.61
2018-04-11T08:26:48.868Z,998.60
2018-04-11T08:27:48.838Z,998.59
2018-04-11T08:28:48.862Z,998.61
2018-04-11T08:29:48.919Z,998.61
2018-04-11T08:30:48.892Z,998.56
2018-04-11T08:31:48.906Z,998.61
2018-04-11T08:32:48.930Z,998.61
2018-04-11T08:33:48.951Z,998.60
2018-04-11T08:34:48.966Z,998.62
2018-04-11T08:35:48.985Z,998.67
2018-04-11T08:36:49.015Z,998.76
2018-04-11T08:37:49.020Z,998.68
2018-04-11T08:38:49.043Z,998.72
2018-04-11T08:39:49.064Z,998.72
2018-04-11T08:40:49.150Z,998.75
2018-04-11T08:41:49.104Z,998.73
2018-04-11T08:43:49.138Z,998.74
2018-04-11T08:44:49.209Z,998.83
2018-04-11T08:45:49.178Z,998.69
2018-04-11T08:46:49.193Z,998.77
2018-04-11T08:47:49.211Z,998.80
2018-04-11T08:48:49.229Z,998.75
2018-04-11T08:49:49.249Z,998.75
2018-04-11T08:50:49.270Z,998.74
2018-04-11T08:51:49.298Z,998.79
2018-04-11T08:52:49.310Z,998.79
2018-04-11T08:53:49.320Z,998.81
2018-04-11T08:54:49.342Z,998.79
2018-04-11T08:55:49.361Z,998.80
2018-04-11T08:56:49.433Z,998.81
2018-04-11T08:58:49.419Z,998.82
2018-04-11T08:59:49.439Z,998.80
2018-04-11T09:00:49.451Z,998.79
2018-04-11T09:01:49.471Z,998.85
2018-04-11T09:02:49.540Z,998.81
2018-04-11T09:03:49.511Z,998.79
2018-04-11T09:04:49.524Z,998.79
2018-04-11T09:05:49.544Z,998.82
2018-04-11T09:06:49.560Z,998.83
2018-04-11T09:08:49.598Z,998.85
2018-04-11T09:09:49.617Z,998.92
2018-04-11T09:10:49.638Z,998.96
2018-04-11T09:11:49.652Z,998.96
2018-04-11T09:13:49.685Z,999.01
2018-04-11T09:14:49.706Z,998.93
2018-04-11T09:15:49.742Z,999.01
2018-04-11T09:16:49.757Z,999.01
2018-04-11T09:17:49.769Z,999.02
2018-04-11T09:18:49.782Z,999.03
2018-04-11T09:19:49.800Z,999.01
2018-04-11T09:20:49.901Z,999.03
2018-04-11T09:21:49.844Z,998.99
2018-04-11T09:22:49.859Z,999.07
2018-04-11T09:23:49.873Z,999.09
2018-04-11T09:24:49.895Z,999.12
2018-04-11T09:25:49.916Z,999.13
2018-04-11T09:26:50.028Z,999.11
2018-04-11T09:27:49.960Z,999.15
2018-04-11T09:28:49.975Z,999.11
2018-04-11T09:29:49.998Z,999.22
2018-04-11T09:30:50.017Z,999.19
2018-04-11T09:31:50.063Z,999.24
2018-04-11T09:32:50.116Z,999.18
2018-04-11T09:33:50.080Z,999.24
2018-04-11T09:34:50.093Z,999.27
2018-04-11T09:35:50.113Z,999.26
2018-04-11T09:36:50.132Z,999.25
2018-04-11T09:37:50.158Z,999.24
2018-04-11T09:38:50.175Z,999.22
2018-04-11T09:39:50.193Z,999.23
2018-04-11T09:40:50.213Z,999.16
2018-04-11T09:41:50.242Z,999.21
2018-04-11T09:42:50.261Z,999.23
2018-04-11T09:43:50.277Z,999.32
2018-04-11T09:44:50.370Z,999.19
2018-04-11T09:45:50.320Z,999.20
2018-04-11T09:46:50.340Z,999.18
2018-04-11T09:47:50.354Z,999.30
2018-04-11T09:48:50.384Z,999.22
2018-04-11T09:49:50.394Z,999.28
2018-04-11T09:50:50.414Z,999.25
2018-04-11T09:51:50.436Z,999.33
2018-04-11T09:52:50.454Z,999.34
2018-04-11T09:53:50.472Z,999.32
2018-04-11T09:54:50.496Z,999.29
2018-04-11T09:55:50.517Z,999.40
2018-04-11T09:56:50.637Z,999.40
2018-04-11T09:57:50.551Z,999.39
2018-04-11T09:58:50.570Z,999.41
2018-04-11T09:59:50.590Z,999.44
2018-04-11T10:00:50.616Z,999.42
2018-04-11T10:01:50.638Z,999.44
2018-04-11T10:02:50.655Z,999.49
2018-04-11T10:03:50.677Z,999.49
2018-04-11T10:04:50.695Z,999.53
2018-04-11T10:05:50.718Z,999.58
2018-04-11T10:06:50.749Z,999.59
2018-04-11T10:07:50.762Z,999.61
2018-04-11T10:08:50.772Z,999.54
2018-04-11T10:09:50.798Z,999.47
2018-04-11T10:10:50.818Z,999.56
2018-04-11T10:11:50.841Z,999.68
2018-04-11T10:12:50.853Z,999.64
2018-04-11T10:13:50.876Z,999.54
2018-04-11T10:14:50.902Z,999.56
2018-04-11T10:15:50.914Z,999.57
2018-04-11T10:16:50.936Z,999.64
2018-04-11T10:17:50.959Z,999.69
2018-04-11T10:18:50.981Z,999.65
2018-04-11T10:19:51.000Z,999.58
2018-04-11T10:20:51.074Z,999.70
2018-04-11T10:21:51.036Z,999.66
2018-04-11T10:22:51.061Z,999.61
2018-04-11T10:23:51.075Z,999.61
2018-04-11T10:24:51.106Z,999.54
2018-04-11T10:25:51.117Z,999.59
2018-04-11T10:26:51.190Z,999.47
2018-04-11T10:27:51.156Z,999.53
2018-04-11T10:28:51.175Z,999.44
2018-04-11T10:29:51.206Z,999.52
2018-04-11T10:30:51.227Z,999.60
2018-04-11T10:31:51.246Z,999.64
2018-04-11T10:32:51.260Z,999.61
2018-04-11T10:33:51.277Z,999.59
2018-04-11T10:34:51.302Z,999.63
2018-04-11T10:35:51.314Z,999.70
2018-04-11T10:36:51.339Z,999.64
2018-04-11T10:37:51.362Z,999.62
2018-04-11T10:38:51.429Z,999.69
2018-04-11T10:39:51.399Z,999.66
2018-04-11T10:40:51.413Z,999.67
2018-04-11T10:41:51.440Z,999.66
2018-04-11T10:42:51.461Z,999.67
2018-04-11T10:43:51.473Z,999.65
2018-04-11T10:44:51.545Z,999.64
2018-04-11T10:45:51.517Z,999.73
2018-04-11T10:46:51.533Z,999.66
2018-04-11T10:47:51.559Z,999.63
2018-04-11T10:48:51.580Z,999.72
2018-04-11T10:49:51.626Z,999.68
2018-04-11T10:50:51.675Z,999.63
2018-04-11T10:51:51.643Z,999.73
2018-04-11T10:52:51.727Z,999.74
2018-04-11T10:53:51.691Z,999.78
2018-04-11T10:54:51.701Z,999.66
2018-04-11T10:55:51.749Z,999.62
2018-04-11T10:56:51.792Z,999.61
2018-04-11T10:57:51.760Z,999.60
2018-04-11T10:58:51.788Z,999.60
2018-04-11T10:59:51.804Z,999.65
2018-04-11T11:00:51.841Z,999.66
2018-04-11T11:01:51.845Z,999.66
2018-04-11T11:02:51.918Z,999.62
2018-04-11T11:03:51.887Z,999.74
2018-04-11T11:04:51.913Z,999.78
2018-04-11T11:05:51.933Z,999.78
2018-04-11T11:06:51.943Z,999.72
2018-04-11T11:07:51.965Z,999.69
2018-04-11T11:08:52.037Z,999.71
2018-04-11T11:09:52.011Z,999.66
2018-04-11T11:10:52.022Z,999.61
2018-04-11T11:11:52.047Z,999.63
2018-04-11T11:12:52.110Z,999.63
2018-04-11T11:13:52.085Z,999.59
2018-04-11T11:14:52.153Z,999.64
2018-04-11T11:15:52.125Z,999.68
2018-04-11T11:16:52.148Z,999.62
2018-04-11T11:17:52.165Z,999.59
2018-04-11T11:18:52.183Z,999.65
2018-04-11T11:19:52.205Z,999.59
2018-04-11T11:20:52.278Z,999.60
2018-04-11T11:21:52.244Z,999.59
2018-04-11T11:22:52.313Z,999.65
2018-04-11T11:23:52.351Z,999.61
2018-04-11T11:24:52.304Z,999.68
2018-04-11T11:25:52.324Z,999.67
2018-04-11T11:26:52.342Z,999.65
2018-04-11T11:27:52.363Z,999.70
2018-04-11T11:28:52.396Z,999.64
2018-04-11T11:29:52.399Z,999.64
2018-04-11T11:30:52.418Z,999.62
2018-04-11T11:31:52.456Z,999.67
2018-04-11T11:32:52.463Z,999.63
2018-04-11T11:33:52.482Z,999.66
2018-04-11T11:34:52.517Z,999.67
2018-04-11T11:35:52.578Z,999.70
2018-04-11T11:36:52.540Z,999.63
2018-04-11T11:37:52.555Z,999.70
2018-04-11T11:38:52.578Z,999.64
2018-04-11T11:39:52.614Z,999.68
2018-04-11T11:40:52.624Z,999.63
2018-04-11T11:41:52.639Z,999.65
2018-04-11T11:42:52.652Z,999.71
2018-04-11T11:43:52.679Z,999.64
2018-04-11T11:44:52.695Z,999.54
2018-04-11T11:45:52.718Z,999.61
2018-04-11T11:46:52.741Z,999.64
2018-04-11T11:47:52.757Z,999.79
2018-04-11T11:48:52.775Z,999.73
2018-04-11T11:49:52.798Z,999.80
2018-04-11T11:50:52.863Z,999.92
2018-04-11T11:51:52.836Z,999.84
2018-04-11T11:52:52.849Z,999.82
2018-04-11T11:53:52.875Z,999.84
2018-04-11T11:54:52.891Z,999.77
2018-04-11T11:55:52.915Z,999.77
2018-04-11T11:56:53.020Z,999.76
2018-04-11T11:57:52.956Z,999.75
2018-04-11T11:58:52.965Z,999.71
2018-04-11T11:59:52.987Z,999.75
2018-04-11T12:00:53.013Z,999.77
2018-04-11T12:01:53.037Z,999.82
2018-04-11T12:02:53.104Z,999.68
2018-04-11T12:04:53.114Z,999.64
2018-04-11T12:05:53.114Z,999.64
2018-04-11T12:10:53.218Z,999.62
2018-04-11T12:11:53.259Z,999.55
2018-04-11T12:19:53.388Z,999.71
2018-04-11T12:20:53.388Z,999.72
2018-04-11T12:21:53.407Z,999.68
2018-04-11T12:23:53.452Z,999.60
2018-04-11T12:24:53.478Z,999.65
2018-04-11T12:25:53.489Z,999.71
2018-04-11T12:26:53.558Z,999.65
2018-04-11T12:27:53.528Z,999.61
2018-04-11T12:28:53.546Z,999.64
2018-04-11T12:29:53.573Z,999.64
2018-04-11T12:30:53.584Z,999.58
2018-04-11T12:31:53.607Z,999.69
2018-04-11T12:32:53.676Z,999.75
2018-04-11T12:33:53.650Z,999.60
2018-04-11T12:34:53.666Z,999.75
2018-04-11T12:35:53.727Z,999.76
2018-04-11T12:36:53.742Z,999.85
2018-04-11T12:37:53.731Z,999.74
2018-04-11T12:38:53.744Z,999.77
2018-04-11T12:39:53.762Z,999.77
2018-04-11T12:40:53.789Z,999.82
2018-04-11T12:41:53.855Z,999.75
2018-04-11T12:42:53.824Z,999.84
2018-04-11T12:43:53.848Z,999.71
2018-04-11T12:44:53.912Z,999.78
2018-04-11T12:45:53.883Z,999.74
2018-04-11T12:46:53.901Z,999.71
2018-04-11T12:47:53.917Z,999.73